createdAt,value
2023-03-26T00:00:44.245Z,6.69
2023-03-26T00:03:16.429Z,6.68
2023-03-26T00:05:45.583Z,6.68
2023-03-26T00:08:12.528Z,6.68
2023-03-26T00:10:41.447Z,6.67
2023-03-26T00:13:08.542Z,6.67
2023-03-26T00:15:36.128Z,6.65
2023-03-26T00:18:03.470Z,6.64
2023-03-26T00:20:32.795Z,6.63
2023-03-26T00:23:01.730Z,6.62
2023-03-26T00:25:28.468Z,6.60
2023-03-26T00:27:54.883Z,6.59
2023-03-26T00:30:21.400Z,6.60
2023-03-26T00:32:53.379Z,6.58
2023-03-26T00:35:20.764Z,6.58
2023-03-26T00:37:47.212Z,6.56
2023-03-26T00:40:13.885Z,6.56
2023-03-26T00:42:40.325Z,6.55
2023-03-26T00:45:07.449Z,6.52
2023-03-26T00:47:34.484Z,6.48
2023-03-26T00:50:01.468Z,6.44
2023-03-26T00:52:28.708Z,6.42
2023-03-26T00:54:55.964Z,6.40
2023-03-26T00:57:34.629Z,6.39
2023-03-26T01:00:15.871Z,6.36
2023-03-26T01:02:45.074Z,6.36
2023-03-26T01:05:36.659Z,6.37
2023-03-26T01:08:15.098Z,6.37
2023-03-26T01:10:43.346Z,6.39
2023-03-26T01:13:10.350Z,6.39
2023-03-26T01:15:37.411Z,6.40
2023-03-26T01:18:09.856Z,6.39
2023-03-26T01:20:46.804Z,6.37
2023-03-26T01:23:19.928Z,6.36
2023-03-26T01:25:55.944Z,6.36
2023-03-26T01:28:26.454Z,6.34
2023-03-26T01:31:09.956Z,6.32
2023-03-26T01:33:46.044Z,6.32
2023-03-26T01:36:25.921Z,6.33
2023-03-26T01:39:04.970Z,6.34
2023-03-26T01:41:43.344Z,6.35
2023-03-26T01:44:15.276Z,6.38
2023-03-26T01:46:42.190Z,6.38
2023-03-26T01:49:13.029Z,6.39
2023-03-26T01:51:41.946Z,6.39
2023-03-26T01:54:13.569Z,6.38
2023-03-26T01:57:01.626Z,6.37
2023-03-26T01:59:40.582Z,6.36
2023-03-26T02:02:14.857Z,6.35
2023-03-26T02:05:04.659Z,6.34
2023-03-26T02:07:59.307Z,6.33
2023-03-26T02:10:44.074Z,6.31
2023-03-26T02:13:12.547Z,6.29
2023-03-26T02:15:55.700Z,6.26
2023-03-26T02:18:24.299Z,6.25
2023-03-26T02:20:53.207Z,6.23
2023-03-26T02:23:20.966Z,6.21
2023-03-26T02:25:48.011Z,6.17
2023-03-26T02:28:14.499Z,6.18
2023-03-26T02:30:40.910Z,6.22
2023-03-26T02:33:07.433Z,6.23
2023-03-26T02:35:33.931Z,6.26
2023-03-26T02:38:00.569Z,6.26
2023-03-26T02:40:27.067Z,6.27
2023-03-26T02:42:53.608Z,6.29
2023-03-26T02:45:20.316Z,6.33
2023-03-26T02:47:46.791Z,6.34
2023-03-26T02:50:13.478Z,6.37
2023-03-26T02:52:40.088Z,6.38
2023-03-26T02:55:07.424Z,6.39
2023-03-26T02:57:34.026Z,6.41
2023-03-26T03:00:02.359Z,6.41
2023-03-26T03:02:29.425Z,6.41
2023-03-26T03:05:01.312Z,6.44
2023-03-26T03:07:28.851Z,6.45
2023-03-26T03:09:55.234Z,6.50
2023-03-26T03:12:21.657Z,6.52
2023-03-26T03:14:48.164Z,6.55
2023-03-26T03:17:14.715Z,6.59
2023-03-26T03:19:41.138Z,6.63
2023-03-26T03:22:07.534Z,6.65
2023-03-26T03:24:34.063Z,6.69
2023-03-26T03:27:00.629Z,6.73
2023-03-26T03:29:27.100Z,6.77
2023-03-26T03:31:53.737Z,6.81
2023-03-26T03:34:21.621Z,6.84
2023-03-26T03:36:48.613Z,6.88
2023-03-26T03:39:15.881Z,6.87
2023-03-26T03:41:42.382Z,6.89
2023-03-26T03:44:08.995Z,6.89
2023-03-26T03:46:35.924Z,6.91
2023-03-26T03:49:03.397Z,6.92
2023-03-26T03:51:29.801Z,6.93
2023-03-26T03:53:56.633Z,6.94
2023-03-26T03:56:24.120Z,6.94
2023-03-26T03:58:50.619Z,6.96
2023-03-26T04:01:17.217Z,6.96
2023-03-26T04:03:46.957Z,6.96
2023-03-26T04:06:13.786Z,6.98
2023-03-26T04:08:40.472Z,6.99
2023-03-26T04:11:06.965Z,6.98
2023-03-26T04:13:33.333Z,6.99
2023-03-26T04:16:00.462Z,6.99
2023-03-26T04:18:27.808Z,6.99
2023-03-26T04:20:55.525Z,6.99
2023-03-26T04:23:22.538Z,7.01
2023-03-26T04:25:53.437Z,6.99
2023-03-26T04:28:35.493Z,7.01
2023-03-26T04:31:06.366Z,6.99
2023-03-26T04:33:34.745Z,7.00
2023-03-26T04:36:02.921Z,6.99
2023-03-26T04:38:34.107Z,6.99
2023-03-26T04:41:04.017Z,6.99
2023-03-26T04:43:31.182Z,7.01
2023-03-26T04:45:57.696Z,7.00
2023-03-26T04:48:24.137Z,7.01
2023-03-26T04:50:50.687Z,7.01
2023-03-26T04:53:21.117Z,7.02
2023-03-26T04:55:57.333Z,7.02
2023-03-26T04:58:30.089Z,7.02
2023-03-26T05:00:57.277Z,7.02
2023-03-26T05:03:23.746Z,7.02
2023-03-26T05:05:50.417Z,7.02
2023-03-26T05:08:16.789Z,7.02
2023-03-26T05:10:43.160Z,7.03
2023-03-26T05:13:09.651Z,7.02
2023-03-26T05:15:36.008Z,7.02
2023-03-26T05:18:02.478Z,7.03
2023-03-26T05:20:31.153Z,7.03
2023-03-26T05:22:57.662Z,7.04
2023-03-26T05:25:24.106Z,7.05
2023-03-26T05:27:50.628Z,7.05
2023-03-26T05:30:19.834Z,7.05
2023-03-26T05:32:48.825Z,7.04
2023-03-26T05:35:19.397Z,7.04
2023-03-26T05:37:47.381Z,7.05
2023-03-26T05:40:16.712Z,7.04
2023-03-26T05:42:43.593Z,7.05
2023-03-26T05:45:12.511Z,7.05
2023-03-26T05:47:39.312Z,7.06
2023-03-26T05:50:06.774Z,7.06
2023-03-26T05:52:33.391Z,7.07
2023-03-26T05:54:59.888Z,7.07
2023-03-26T05:57:29.429Z,7.07
2023-03-26T05:59:56.339Z,7.09
2023-03-26T06:02:23.690Z,7.10
2023-03-26T06:04:50.950Z,7.12
2023-03-26T06:07:18.109Z,7.12
2023-03-26T06:09:45.116Z,7.14
2023-03-26T06:12:12.485Z,7.15
2023-03-26T06:14:38.978Z,7.15
2023-03-26T06:17:05.425Z,7.18
2023-03-26T06:19:31.861Z,7.20
2023-03-26T06:21:58.250Z,7.21
2023-03-26T06:24:24.660Z,7.23
2023-03-26T06:26:52.211Z,7.26
2023-03-26T06:29:18.665Z,7.26
2023-03-26T06:31:45.204Z,7.29
2023-03-26T06:34:11.667Z,7.32
2023-03-26T06:36:38.147Z,7.33
2023-03-26T06:39:07.775Z,7.36
2023-03-26T06:41:35.493Z,7.39
2023-03-26T06:44:01.911Z,7.41
2023-03-26T06:46:28.735Z,7.43
2023-03-26T06:48:55.298Z,7.45
2023-03-26T06:51:21.676Z,7.47
2023-03-26T06:53:48.046Z,7.47
2023-03-26T06:56:14.528Z,7.47
2023-03-26T06:58:41.254Z,7.48
2023-03-26T07:01:07.811Z,7.48
2023-03-26T07:03:34.339Z,7.48
2023-03-26T07:06:00.779Z,7.47
2023-03-26T07:08:27.424Z,7.46
2023-03-26T07:10:54.087Z,7.47
2023-03-26T07:13:20.748Z,7.49
2023-03-26T07:15:48.864Z,7.50
2023-03-26T07:18:15.327Z,7.50
2023-03-26T07:20:42.366Z,7.54
2023-03-26T07:23:11.534Z,7.58
2023-03-26T07:25:38.376Z,7.60
2023-03-26T07:28:24.967Z,7.64
2023-03-26T07:31:10.839Z,7.65
2023-03-26T07:33:40.367Z,7.66
2023-03-26T07:36:33.036Z,7.72
2023-03-26T07:39:18.734Z,7.75
2023-03-26T07:42:01.560Z,7.77
2023-03-26T07:44:50.214Z,7.79
2023-03-26T07:47:33.563Z,7.81
2023-03-26T07:50:00.300Z,7.84
2023-03-26T07:52:28.404Z,7.84
2023-03-26T07:54:55.650Z,7.88
2023-03-26T07:57:47.488Z,7.92
2023-03-26T08:00:25.128Z,7.95
2023-03-26T08:03:22.010Z,7.98
2023-03-26T08:06:08.799Z,8.01
2023-03-26T08:08:45.781Z,8.02
2023-03-26T08:11:24.733Z,8.02
2023-03-26T08:14:03.166Z,8.06
2023-03-26T08:16:39.845Z,8.07
2023-03-26T08:19:12.779Z,8.08
2023-03-26T08:21:48.244Z,8.08
2023-03-26T08:24:37.027Z,8.09
2023-03-26T08:27:18.693Z,8.04
2023-03-26T08:30:17.165Z,7.99
2023-03-26T08:32:52.844Z,7.99
2023-03-26T08:35:19.266Z,8.01
2023-03-26T08:37:45.659Z,8.03
2023-03-26T08:40:13.626Z,8.02
2023-03-26T08:43:04.474Z,8.01
2023-03-26T08:45:51.375Z,7.98
2023-03-26T08:48:34.694Z,7.96
2023-03-26T08:51:28.619Z,7.93
2023-03-26T08:54:13.551Z,7.93
2023-03-26T08:57:17.397Z,7.91
2023-03-26T08:59:53.453Z,7.91
2023-03-26T09:03:15.245Z,7.89
2023-03-26T09:05:47.401Z,7.83
2023-03-26T09:08:53.737Z,7.81
2023-03-26T09:11:36.160Z,7.80
2023-03-26T09:14:22.821Z,7.74
2023-03-26T09:16:58.390Z,7.73
2023-03-26T09:19:52.797Z,7.69
2023-03-26T09:22:41.545Z,7.71
2023-03-26T09:25:14.101Z,7.69
2023-03-26T09:27:53.996Z,7.72
2023-03-26T09:30:57.893Z,7.69
2023-03-26T09:33:59.252Z,7.73
2023-03-26T09:36:48.486Z,7.77
2023-03-26T09:39:27.391Z,7.80
2023-03-26T09:42:09.796Z,7.84
2023-03-26T09:44:41.838Z,7.88
2023-03-26T09:47:32.259Z,7.89
2023-03-26T09:50:29.198Z,7.90
2023-03-26T09:53:21.550Z,7.89
2023-03-26T09:55:56.663Z,7.90
2023-03-26T09:58:33.086Z,7.91
2023-03-26T10:01:05.700Z,7.90
2023-03-26T10:03:59.909Z,7.85
2023-03-26T10:06:33.550Z,7.82
2023-03-26T10:09:37.496Z,7.81
2023-03-26T10:12:24.396Z,7.82
2023-03-26T10:14:59.516Z,7.80
2023-03-26T10:17:43.071Z,7.81
2023-03-26T10:20:37.814Z,7.77
2023-03-26T10:23:47.052Z,7.74
2023-03-26T10:26:34.490Z,7.74
2023-03-26T10:29:18.942Z,7.79
2023-03-26T10:32:19.893Z,7.82
2023-03-26T10:35:04.068Z,7.79
2023-03-26T10:38:03.750Z,7.79
2023-03-26T10:41:04.557Z,7.77
2023-03-26T10:43:42.557Z,7.78
2023-03-26T10:46:21.490Z,7.81
2023-03-26T10:49:09.967Z,7.88
2023-03-26T10:51:51.316Z,7.90
2023-03-26T10:55:08.967Z,7.91
2023-03-26T10:57:44.573Z,7.90
2023-03-26T11:00:16.526Z,7.85
2023-03-26T11:03:01.367Z,7.72
2023-03-26T11:05:46.432Z,7.61
2023-03-26T11:08:31.092Z,7.57
2023-03-26T11:11:14.393Z,7.54
2023-03-26T11:13:53.632Z,7.57
2023-03-26T11:16:44.847Z,7.56
2023-03-26T11:19:38.796Z,7.59
2023-03-26T11:22:30.120Z,7.56
2023-03-26T11:25:05.624Z,7.52
2023-03-26T11:27:38.267Z,7.54
2023-03-26T11:30:26.375Z,7.63
2023-03-26T11:33:01.582Z,7.74
2023-03-26T11:35:40.514Z,7.79
2023-03-26T11:38:26.458Z,7.77
2023-03-26T11:40:56.011Z,7.74
2023-03-26T11:43:30.045Z,7.67
2023-03-26T11:45:56.618Z,7.65
2023-03-26T11:48:27.904Z,7.55
2023-03-26T11:51:04.365Z,7.49
2023-03-26T11:53:34.714Z,7.45
2023-03-26T11:56:08.061Z,7.43
2023-03-26T11:58:37.455Z,7.45
2023-03-26T12:01:13.372Z,7.48
2023-03-26T12:03:40.490Z,7.47
2023-03-26T12:06:25.552Z,7.54
2023-03-26T12:08:53.676Z,7.59
2023-03-26T12:11:27.360Z,7.67
2023-03-26T12:14:03.987Z,7.75
2023-03-26T12:16:30.937Z,7.80
2023-03-26T12:19:22.532Z,7.81
2023-03-26T12:21:51.729Z,7.87
2023-03-26T12:24:31.091Z,7.92
2023-03-26T12:27:20.566Z,7.94
2023-03-26T12:30:12.500Z,8.08
2023-03-26T12:32:46.123Z,8.15
2023-03-26T12:35:27.334Z,8.26
2023-03-26T12:37:55.378Z,8.40
2023-03-26T12:40:35.947Z,8.45
2023-03-26T12:44:52.751Z,8.41
2023-03-26T12:47:54.002Z,8.36
2023-03-26T12:48:41.549Z,8.37
2023-03-26T12:51:21.603Z,8.32
2023-03-26T12:54:25.939Z,8.28
2023-03-26T12:57:21.448Z,8.36
2023-03-26T13:00:23.438Z,8.36
2023-03-26T13:03:44.929Z,8.43
2023-03-26T13:07:00.144Z,8.55
2023-03-26T13:09:37.669Z,8.64
2023-03-26T13:12:14.421Z,8.71
2023-03-26T13:15:09.071Z,8.66
2023-03-26T13:17:48.140Z,8.69
2023-03-26T13:20:33.158Z,8.79
2023-03-26T13:23:22.806Z,8.80
2023-03-26T13:26:11.497Z,8.71
2023-03-26T13:28:50.268Z,8.75
2023-03-26T13:31:35.330Z,8.72
2023-03-26T13:34:23.585Z,8.68
2023-03-26T13:37:07.305Z,8.72
2023-03-26T13:40:05.031Z,8.72
2023-03-26T13:42:47.688Z,8.72
2023-03-26T13:45:27.571Z,8.83
2023-03-26T13:47:57.052Z,8.95
2023-03-26T13:50:26.461Z,8.94
2023-03-26T13:53:10.822Z,9.00
2023-03-26T13:55:42.651Z,9.04
2023-03-26T13:58:34.663Z,9.09
2023-03-26T14:01:12.648Z,9.16
2023-03-26T14:04:19.187Z,9.12
2023-03-26T14:07:07.303Z,9.06
2023-03-26T14:09:46.542Z,9.04
2023-03-26T14:12:37.930Z,8.96
2023-03-26T14:15:16.372Z,8.91
2023-03-26T14:17:50.560Z,8.87
2023-03-26T14:20:48.955Z,8.81
2023-03-26T14:23:41.167Z,8.74
2023-03-26T14:26:16.513Z,8.69
2023-03-26T14:28:57.447Z,8.60
2023-03-26T14:32:01.008Z,8.56
2023-03-26T14:34:46.872Z,8.52
2023-03-26T14:37:34.824Z,8.55
2023-03-26T14:40:16.613Z,8.55
2023-03-26T14:42:56.595Z,8.49
2023-03-26T14:45:45.855Z,8.43
2023-03-26T14:48:41.019Z,8.41
2023-03-26T14:51:30.935Z,8.38
2023-03-26T14:54:06.775Z,8.38
2023-03-26T14:57:16.025Z,8.33
2023-03-26T15:00:19.989Z,8.33
2023-03-26T15:03:21.514Z,8.23
2023-03-26T15:06:15.910Z,8.21
2023-03-26T15:09:18.721Z,8.26
2023-03-26T15:12:12.606Z,8.33
2023-03-26T15:15:04.282Z,8.29
2023-03-26T15:17:44.763Z,8.29
2023-03-26T15:20:48.567Z,8.26
2023-03-26T15:23:26.020Z,8.27
2023-03-26T15:26:04.214Z,8.34
2023-03-26T15:28:52.398Z,8.42
2023-03-26T15:32:30.188Z,8.35
2023-03-26T15:35:17.449Z,8.30
2023-03-26T15:37:58.625Z,8.25
2023-03-26T15:40:29.169Z,8.13
2023-03-26T15:43:01.472Z,8.03
2023-03-26T15:45:27.914Z,8.00
2023-03-26T15:48:01.330Z,7.94
2023-03-26T15:50:45.714Z,7.86
2023-03-26T15:53:33.903Z,7.80
2023-03-26T15:56:12.850Z,7.81
2023-03-26T15:58:52.010Z,7.78
2023-03-26T16:01:34.046Z,7.79
2023-03-26T16:04:12.555Z,7.78
2023-03-26T16:06:59.364Z,7.72
2023-03-26T16:09:50.772Z,7.69
2023-03-26T16:12:17.223Z,7.67
2023-03-26T16:14:46.059Z,7.56
2023-03-26T16:17:23.364Z,7.52
2023-03-26T16:19:59.250Z,7.55
2023-03-26T16:22:54.852Z,7.50
2023-03-26T16:25:29.230Z,7.47
2023-03-26T16:28:10.156Z,7.47
2023-03-26T16:30:37.053Z,7.42
2023-03-26T16:33:15.346Z,7.36
2023-03-26T16:36:03.000Z,7.32
2023-03-26T16:38:51.812Z,7.31
2023-03-26T16:41:51.284Z,7.29
2023-03-26T16:44:21.091Z,7.24
2023-03-26T16:47:13.935Z,7.17
2023-03-26T16:50:29.252Z,7.15
2023-03-26T16:53:33.306Z,7.14
2023-03-26T16:56:22.271Z,7.12
2023-03-26T16:58:56.049Z,7.10
2023-03-26T17:01:42.862Z,7.07
2023-03-26T17:04:24.638Z,7.01
2023-03-26T17:07:13.644Z,6.97
2023-03-26T17:10:12.371Z,6.91
2023-03-26T17:13:02.230Z,6.88
2023-03-26T17:15:34.621Z,6.85
2023-03-26T17:18:38.331Z,6.82
2023-03-26T17:21:19.720Z,6.77
2023-03-26T17:24:17.430Z,6.71
2023-03-26T17:27:16.328Z,6.62
2023-03-26T17:30:00.550Z,6.58
2023-03-26T17:33:05.095Z,6.57
2023-03-26T17:35:51.615Z,6.56
2023-03-26T17:38:17.977Z,6.55
2023-03-26T17:40:57.605Z,6.53
2023-03-26T17:43:38.010Z,6.47
2023-03-26T17:46:30.387Z,6.45
2023-03-26T17:49:01.378Z,6.41
2023-03-26T17:51:47.741Z,6.39
2023-03-26T17:54:28.840Z,6.31
2023-03-26T17:57:00.626Z,6.27
2023-03-26T17:59:30.494Z,6.25
2023-03-26T18:02:03.841Z,6.23
2023-03-26T18:04:36.381Z,6.20
2023-03-26T18:07:11.952Z,6.15
2023-03-26T18:09:50.738Z,6.08
2023-03-26T18:12:50.853Z,6.00
2023-03-26T18:15:49.715Z,5.92
2023-03-26T18:18:25.624Z,5.87
2023-03-26T18:20:54.545Z,5.84
2023-03-26T18:23:36.801Z,5.79
2023-03-26T18:26:18.358Z,5.80
2023-03-26T18:29:20.442Z,5.82
2023-03-26T18:31:50.214Z,5.83
2023-03-26T18:34:21.071Z,5.85
2023-03-26T18:37:01.040Z,5.87
2023-03-26T18:39:28.538Z,5.86
2023-03-26T18:41:55.464Z,5.86
2023-03-26T18:44:22.775Z,5.88
2023-03-26T18:46:54.706Z,5.87
2023-03-26T18:49:24.050Z,5.88
2023-03-26T18:51:57.218Z,5.85
2023-03-26T18:54:29.576Z,5.84
2023-03-26T18:56:59.014Z,5.79
2023-03-26T18:59:32.029Z,5.75
2023-03-26T19:02:05.134Z,5.69
2023-03-26T19:04:37.147Z,5.63
2023-03-26T19:07:08.694Z,5.55
2023-03-26T19:09:35.708Z,5.51
2023-03-26T19:12:16.806Z,5.45
2023-03-26T19:14:58.006Z,5.42
2023-03-26T19:17:30.404Z,5.41
2023-03-26T19:19:57.651Z,5.41
2023-03-26T19:22:25.042Z,5.41
2023-03-26T19:24:57.788Z,5.42
2023-03-26T19:27:24.786Z,5.43
2023-03-26T19:29:51.254Z,5.44
2023-03-26T19:32:21.265Z,5.41
2023-03-26T19:34:48.442Z,5.37
2023-03-26T19:37:24.929Z,5.29
2023-03-26T19:39:53.686Z,5.21
2023-03-26T19:42:26.564Z,5.17
2023-03-26T19:44:54.138Z,5.14
2023-03-26T19:47:31.947Z,5.09
2023-03-26T19:50:26.267Z,5.04
2023-03-26T19:53:16.716Z,5.00
2023-03-26T19:55:53.894Z,4.97
2023-03-26T19:58:20.435Z,4.95
2023-03-26T20:00:47.005Z,4.92
2023-03-26T20:03:16.572Z,4.87
2023-03-26T20:05:43.335Z,4.85
2023-03-26T20:08:19.646Z,4.86
2023-03-26T20:10:46.193Z,4.85
2023-03-26T20:13:17.210Z,4.85
2023-03-26T20:16:05.573Z,4.83
2023-03-26T20:18:33.846Z,4.84
2023-03-26T20:21:00.555Z,4.82
2023-03-26T20:23:28.782Z,4.81
2023-03-26T20:25:55.507Z,4.80
2023-03-26T20:28:22.268Z,4.81
2023-03-26T20:30:50.027Z,4.79
2023-03-26T20:33:25.338Z,4.79
2023-03-26T20:35:53.315Z,4.77
2023-03-26T20:38:24.006Z,4.75
2023-03-26T20:40:56.262Z,4.74
2023-03-26T20:43:25.066Z,4.71
2023-03-26T20:45:52.003Z,4.69
2023-03-26T20:48:18.382Z,4.66
2023-03-26T20:50:50.695Z,4.62
2023-03-26T20:53:18.826Z,4.57
2023-03-26T20:55:46.175Z,4.53
2023-03-26T20:58:18.145Z,4.48
2023-03-26T21:01:00.386Z,4.44
2023-03-26T21:03:27.592Z,4.42
2023-03-26T21:05:54.075Z,4.39
2023-03-26T21:08:21.714Z,4.33
2023-03-26T21:10:48.509Z,4.28
2023-03-26T21:13:38.304Z,4.23
2023-03-26T21:16:05.241Z,4.19
2023-03-26T21:18:32.289Z,4.14
2023-03-26T21:21:46.036Z,4.10
2023-03-26T21:24:45.035Z,4.02
2023-03-26T21:27:28.486Z,3.96
2023-03-26T21:29:56.095Z,3.94
2023-03-26T21:32:23.183Z,3.88
2023-03-26T21:34:58.665Z,3.84
2023-03-26T21:37:26.985Z,3.82
2023-03-26T21:39:53.753Z,3.80
2023-03-26T21:42:20.496Z,3.78
2023-03-26T21:44:47.669Z,3.74
2023-03-26T21:47:14.823Z,3.73
2023-03-26T21:49:41.611Z,3.68
2023-03-26T21:52:14.633Z,3.67
2023-03-26T21:54:43.144Z,3.63
2023-03-26T21:57:22.286Z,3.62
2023-03-26T22:00:14.288Z,3.64
2023-03-26T22:06:06.242Z,3.69
2023-03-26T22:08:38.795Z,3.72
2023-03-26T22:11:07.144Z,3.77
2023-03-26T22:13:35.650Z,3.80
2023-03-26T22:16:02.518Z,3.83
2023-03-26T22:18:30.110Z,3.84
2023-03-26T22:20:59.016Z,3.86
2023-03-26T22:23:26.752Z,3.90
2023-03-26T22:25:53.236Z,3.90
2023-03-26T22:28:19.808Z,3.93
2023-03-26T22:30:46.573Z,3.91
2023-03-26T22:33:14.323Z,3.92
2023-03-26T22:35:44.547Z,3.91
2023-03-26T22:38:11.734Z,3.90
2023-03-26T22:40:38.691Z,3.87
2023-03-26T22:43:05.277Z,3.86
2023-03-26T22:45:32.537Z,3.82
2023-03-26T22:48:03.969Z,3.78
2023-03-26T22:50:31.063Z,3.73
2023-03-26T22:52:57.491Z,3.67
2023-03-26T22:55:29.328Z,3.64
2023-03-26T22:57:56.899Z,3.61
2023-03-26T23:00:23.509Z,3.56
2023-03-26T23:02:50.091Z,3.51
2023-03-26T23:05:20.287Z,3.49
2023-03-26T23:07:47.319Z,3.47
2023-03-26T23:10:14.071Z,3.46
2023-03-26T23:12:41.508Z,3.47
2023-03-26T23:15:09.748Z,3.48
2023-03-26T23:17:37.582Z,3.49
2023-03-26T23:20:12.448Z,3.48
2023-03-26T23:22:38.921Z,3.49
2023-03-26T23:25:06.119Z,3.49
2023-03-26T23:27:33.093Z,3.48
2023-03-26T23:30:01.181Z,3.47
2023-03-26T23:32:28.250Z,3.46
2023-03-26T23:34:56.059Z,3.48
2023-03-26T23:37:23.533Z,3.49
2023-03-26T23:39:51.103Z,3.49
2023-03-26T23:42:18.158Z,3.49
2023-03-26T23:44:56.885Z,3.49
2023-03-26T23:47:23.874Z,3.49
2023-03-26T23:49:50.431Z,3.46
2023-03-26T23:52:16.926Z,3.45
2023-03-26T23:54:44.581Z,3.44
2023-03-26T23:57:11.483Z,3.43
2023-03-26T23:59:38.270Z,3.45
